Latest Weather Observations for Darwin Airport

IDD60901

Issued at 2:51 pm CST Friday 22 June 2018 (issued every 10 minutes, with the page automatically refreshed every 10 minutes)

About weather observations | Map of Darwin area stations | Latest observations for Darwin area | Other Formats
Station Details ID: 014015 Name: DARWIN AIRPORT Lat: -12.42 Lon: 130.89 Height: 30.4 m
Data from the previous 72 hours. | See also: Recent months at Darwin Airport
Date/Time
CST
Temp
°C
App
Temp
°C
Dew
Point
°C
Rel
Hum
%
Delta-T
°C
Wind Press
QNH
hPa
Press
MSL
hPa
Rain since
9am
mm
Dir  Spd
km/h
Gust
km/h
Spd
kts
Gust
kts
22/02:30pm 30.1 25.0 2.8 17 13.7 ENE 19 28 10 15 1013.4 1013.2 0.0
22/02:00pm 31.0 25.8 2.6 16 14.3 ENE 19 24 10 13 1013.8 1013.6 0.0
22/01:30pm 30.1 24.1 3.2 18 13.6 E 24 32 13 17 1014.2 1014.0 0.0
22/01:00pm 29.2 24.0 3.4 19 13.0 E 20 33 11 18 1014.7 1014.5 0.0
22/12:30pm 28.5 22.8 5.1 22 12.1 E 24 32 13 17 1015.4 1015.2 0.0
22/12:00pm 27.6 21.2 5.0 23 11.6 E 28 37 15 20 1015.9 1015.7 0.0
22/11:30am 26.9 20.4 4.9 24 11.2 E 28 43 15 23 1016.4 1016.2 0.0
22/11:00am 26.7 20.9 6.1 27 10.7 E 26 33 14 18 1016.6 1016.4 0.0
22/10:30am 25.5 19.7 6.4 29 9.9 E 26 33 14 18 1016.8 1016.6 0.0
22/10:00am 24.9 19.9 6.3 30 9.6 ESE 22 28 12 15 1016.8 1016.6 0.0
22/09:30am 23.6 18.8 5.6 31 9.1 ESE 20 28 11 15 1016.8 1016.6 0.0
22/09:00am 21.7 17.1 3.6 30 8.7 ESE 17 22 9 12 1016.9 1016.7 0.0
22/08:30am 20.0 14.7 1.9 30 8.3 SE 19 26 10 14 1016.7 1016.5 0.0
22/08:00am 19.0 13.6 1.2 30 8.0 SE 19 24 10 13 1016.3 1016.1 0.0
22/07:30am 18.0 13.0 1.1 32 7.5 SE 17 20 9 11 1015.8 1015.6 0.0
22/07:00am 18.1 13.4 1.0 31 7.6 SE 15 19 8 10 1015.4 1015.2 0.0
22/06:30am 18.4 14.1 1.1 31 7.7 SE 13 17 7 9 1015.2 1015.0 0.0
22/06:00am 19.1 14.8 0.7 29 8.2 SE 13 15 7 8 1014.9 1014.7 0.0
22/05:30am 19.8 15.4 0.1 26 8.7 ESE 13 17 7 9 1014.9 1014.7 0.0
22/05:00am 19.7 15.7 0.7 28 8.5 ESE 11 15 6 8 1014.9 1014.7 0.0
22/04:30am 20.7 16.2 -0.4 24 9.3 ESE 13 15 7 8 1014.9 1014.7 0.0
22/04:00am 21.2 16.7 -0.5 23 9.6 ESE 13 17 7 9 1014.9 1014.7 0.0
22/03:30am 20.5 15.8 1.1 27 8.8 ESE 15 19 8 10 1015.0 1014.8 0.0
22/03:00am 21.2 16.1 0.6 25 9.3 SE 17 20 9 11 1015.2 1015.0 0.0
22/02:30am 21.2 16.6 1.7 27 9.0 SE 15 20 8 11 1015.3 1015.1 0.0
22/02:00am 20.9 17.0 3.5 31 8.3 SE 13 17 7 9 1015.3 1015.1 0.0
22/01:30am 21.8 18.3 3.5 30 8.8 SE 11 15 6 8 1015.4 1015.2 0.0
22/01:00am 22.0 19.5 6.5 36 7.9 SSE 9 13 5 7 1015.3 1015.1 0.0
22/12:30am 22.4 20.3 9.6 44 6.9 SSE 11 13 6 7 1015.5 1015.3 0.0
22/12:00am 21.1 21.6 15.6 71 3.3 SSE 7 9 4 5 1015.7 1015.5 0.0
 
Date/Time
CST
Temp
°C
App
Temp
°C
Dew
Point
°C
Rel
Hum
%
Delta-T
°C
Wind Press
QNH
hPa
Press
MSL
hPa
Rain since
9am
mm
Dir  Spd
km/h
Gust
km/h
Spd
kts
Gust
kts
21/11:30pm 21.4 22.8 17.8 80 2.2 S 7 9 4 5 1015.8 1015.6 0.0
21/11:00pm 20.6 22.0 17.8 84 1.7 S 7 9 4 5 1016.0 1015.8 0.0
21/10:30pm 21.2 22.6 17.8 81 2.1 SSW 7 9 4 5 1016.3 1016.1 0.0
21/10:00pm 22.1 23.6 17.7 76 2.7 SW 6 7 3 4 1016.2 1016.0 0.0
21/09:30pm 23.0 24.2 18.2 74 3.0 SW 9 11 5 6 1016.1 1015.9 0.0
21/09:00pm 22.9 24.0 17.9 73 3.1 SW 9 11 5 6 1015.9 1015.7 0.0
21/08:30pm 23.6 24.0 16.2 63 4.5 WSW 9 11 5 6 1015.8 1015.6 0.0
21/08:00pm 22.3 23.6 16.2 68 3.7 N 4 4 2 2 1015.3 1015.1 0.0
21/07:30pm 24.0 25.3 16.1 61 4.8 N 4 6 2 3 1014.8 1014.6 0.0
21/07:00pm 25.1 25.8 16.1 57 5.5 N 7 11 4 6 1014.6 1014.4 0.0
21/06:30pm 26.4 26.8 15.4 50 6.7 NNW 7 9 4 5 1014.1 1013.9 0.0
21/06:00pm 27.3 27.0 15.5 48 7.2 NNW 11 15 6 8 1013.5 1013.3 0.0
21/05:30pm 28.1 27.2 14.9 44 8.0 NNW 13 19 7 10 1013.2 1013.0 0.0
21/05:00pm 29.9 27.8 12.4 34 10.3 NW 15 17 8 9 1013.2 1013.0 0.0
21/04:30pm 31.6 27.3 0.8 14 15.1 WNW 13 17 7 9 1012.9 1012.7 0.0
21/04:00pm 31.5 27.9 0.5 13 15.1 E 9 20 5 11 1012.9 1012.7 0.0
21/03:30pm 31.4 26.7 1.1 14 14.9 ENE 15 22 8 12 1012.8 1012.6 0.0
21/03:00pm 31.0 26.5 -0.3 13 15.0 E 13 20 7 11 1013.0 1012.8 0.0
21/02:30pm 31.1 26.8 0.8 14 14.8 ENE 13 20 7 11 1013.3 1013.1 0.0
21/02:00pm 31.2 26.5 1.0 14 14.8 ENE 15 20 8 11 1013.7 1013.5 0.0
21/01:30pm 30.5 24.2 1.4 15 14.3 E 24 37 13 20 1014.1 1013.9 0.0
21/01:00pm 29.7 23.9 -0.2 14 14.2 ENE 20 28 11 15 1014.5 1014.3 0.0
21/12:30pm 29.4 23.4 0.8 16 13.8 ESE 22 28 12 15 1015.1 1014.9 0.0
21/12:00pm 29.2 23.8 1.5 17 13.5 E 19 28 10 15 1015.3 1015.1 0.0
21/11:30am 28.6 22.1 0.5 16 13.4 E 24 32 13 17 1015.7 1015.5 0.0
21/11:00am 27.9 23.6 3.2 20 12.3 E 15 20 8 11 1016.3 1016.1 0.0
21/10:30am 27.5 23.2 5.4 24 11.4 E 17 22 9 12 1016.6 1016.4 0.0
21/10:00am 26.4 22.0 6.5 28 10.4 E 19 24 10 13 1016.8 1016.6 0.0
21/09:30am 25.0 22.4 7.9 33 9.1 SE 11 17 6 9 1017.0 1016.8 0.0
21/09:00am 23.6 20.9 8.9 39 7.9 SE 13 19 7 10 1016.9 1016.7 0.0
21/08:30am 22.8 20.3 8.2 39 7.7 ESE 11 15 6 8 1016.5 1016.3 0.0
21/08:00am 20.7 18.4 9.0 47 6.2 ESE 11 15 6 8 1016.3 1016.1 0.0
21/07:30am 20.1 17.1 7.9 45 6.3 SE 13 15 7 8 1015.7 1015.5 0.0
21/07:00am 20.5 18.3 8.0 44 6.5 ESE 9 11 5 6 1015.4 1015.2 0.0
21/06:30am 20.2 18.1 8.3 46 6.2 E 9 11 5 6 1015.3 1015.1 0.0
21/06:00am 20.7 19.4 9.9 50 5.8 ESE 7 9 4 5 1015.2 1015.0 0.0
21/05:30am 21.5 19.6 9.1 45 6.6 ESE 9 11 5 6 1015.0 1014.8 0.0
21/05:00am 22.3 19.5 8.5 41 7.3 ESE 13 15 7 8 1014.7 1014.5 0.0
21/04:30am 21.5 19.4 11.0 51 5.8 SE 13 17 7 9 1014.7 1014.5 0.0
21/04:00am 21.2 20.7 13.8 62 4.3 SE 9 11 5 6 1014.5 1014.3 0.0
21/03:30am 21.3 21.7 16.3 73 3.0 SSE 9 11 5 6 1014.4 1014.2 0.0
21/03:00am 20.9 22.2 18.5 86 1.5 SSE 9 11 5 6 1014.6 1014.4 0.0
21/02:30am 20.3 22.0 18.0 87 1.4 SSE 6 7 3 4 1014.8 1014.6 0.0
21/02:00am 21.0 22.7 18.6 86 1.5 S 7 9 4 5 1014.9 1014.7 0.0
21/01:30am 21.4 22.9 19.0 86 1.5 S 9 11 5 6 1015.1 1014.9 0.0
21/01:00am 20.9 22.8 19.0 89 1.2 S 7 9 4 5 1015.1 1014.9 0.0
21/12:30am 21.5 23.9 19.6 89 1.2 SSE 6 7 3 4 1015.2 1015.0 0.0
21/12:00am 21.1 24.5 19.4 90 1.1 CALM 0 0 0 0 1015.2 1015.0 0.0
 
Date/Time
CST
Temp
°C
App
Temp
°C
Dew
Point
°C
Rel
Hum
%
Delta-T
°C
Wind Press
QNH
hPa
Press
MSL
hPa
Rain since
9am
mm
Dir  Spd
km/h
Gust
km/h
Spd
kts
Gust
kts
20/11:30pm 21.9 25.0 19.5 86 1.5 SSE 2 4 1 2 1015.1 1014.9 0.0
20/11:00pm 22.8 25.4 20.0 84 1.8 SSW 6 6 3 3 1015.3 1015.1 0.0
20/10:30pm 22.8 25.6 19.7 83 2.0 SSW 4 7 2 4 1015.4 1015.2 0.0
20/10:00pm 24.1 27.0 19.8 77 2.8 SW 4 6 2 3 1015.2 1015.0 0.0
20/09:30pm 24.2 26.7 20.2 78 2.6 SSW 7 9 4 5 1015.0 1014.8 0.0
20/09:00pm 24.0 25.2 16.9 64 4.4 S 6 7 3 4 1014.7 1014.5 0.0
20/08:30pm 24.0 26.1 17.2 65 4.2 ENE 2 2 1 1 1014.4 1014.2 0.0
20/08:00pm 24.3 26.1 17.4 65 4.3 NE 4 6 2 3 1013.9 1013.7 0.0
20/07:30pm 25.2 27.2 17.9 64 4.6 NE 4 6 2 3 1013.6 1013.4 0.0
20/07:00pm 26.1 27.3 16.9 57 5.7 NNE 6 9 3 5 1013.5 1013.3 0.0
20/06:30pm 26.8 27.3 16.6 53 6.3 N 9 13 5 7 1013.3 1013.1 0.0
20/06:00pm 28.1 27.7 16.3 48 7.3 N 13 17 7 9 1012.9 1012.7 0.0
20/05:30pm 28.7 29.2 18.4 53 6.6 NNW 13 17 7 9 1012.8 1012.6 0.0
20/05:00pm 30.2 30.3 16.5 43 8.6 NW 11 15 6 8 1012.7 1012.5 0.0
20/04:30pm 29.4 29.5 17.4 48 7.6 NNW 13 19 7 10 1012.6 1012.4 0.0
20/04:00pm 29.6 28.4 16.1 44 8.4 NNW 17 22 9 12 1012.7 1012.5 0.0
20/03:30pm 29.8 28.1 15.7 42 8.7 NNW 19 28 10 15 1013.0 1012.8 0.0
20/03:00pm 32.9 31.2 13.6 31 11.7 NNW 15 20 8 11 1013.0 1012.8 0.0
20/02:30pm 32.3 30.1 12.2 29 11.9 ENE 15 24 8 13 1013.3 1013.1 0.0
20/02:00pm 32.7 31.0 12.6 29 12.0 ENE 13 24 7 13 1013.7 1013.5 0.0
20/01:30pm 32.3 28.9 11.4 27 12.2 ENE 20 30 11 16 1014.1 1013.9 0.0
20/01:00pm 31.4 27.7 10.2 27 12.1 ENE 20 28 11 15 1014.6 1014.4 0.0
20/12:30pm 31.5 27.6 8.5 24 12.8 ESE 19 28 10 15 1015.1 1014.9 0.0
20/12:00pm 30.2 25.2 4.8 20 13.2 ESE 20 28 11 15 1015.5 1015.3 0.0
20/11:30am 30.0 24.9 3.3 18 13.5 ESE 19 30 10 16 1015.7 1015.5 0.0
20/11:00am 29.4 22.7 1.6 16 13.6 ESE 26 33 14 18 1016.1 1015.9 0.0
20/10:30am 29.0 23.6 2.6 18 13.1 E 20 30 11 16 1016.2 1016.0 0.0
20/10:00am 28.0 22.4 3.4 20 12.3 E 22 32 12 17 1016.5 1016.3 0.0
20/09:30am 26.9 22.1 4.6 24 11.3 ESE 19 30 10 16 1016.7 1016.5 0.0
20/09:00am 26.3 22.7 5.1 25 10.8 ESE 13 19 7 10 1016.6 1016.4 0.0
20/08:30am 24.2 20.9 6.6 32 9.1 SE 13 19 7 10 1016.4 1016.2 0.0
20/08:00am 23.4 20.9 6.7 34 8.6 ESE 9 13 5 7 1016.3 1016.1 0.0
20/07:30am 22.9 19.4 5.6 32 8.7 E 13 15 7 8 1015.8 1015.6 0.0
20/07:00am 21.2 19.2 8.7 44 6.6 E 9 13 5 7 1015.5 1015.3 0.0
20/06:30am 21.8 19.1 9.0 44 6.8 ESE 13 13 7 7 1015.2 1015.0 0.0
20/06:00am 21.4 19.3 11.1 52 5.7 SE 13 19 7 10 1015.1 1014.9 0.0
20/05:30am 21.6 19.8 12.0 54 5.4 SE 13 17 7 9 1015.3 1015.1 0.0
20/05:00am 22.1 20.3 12.2 53 5.6 SE 13 19 7 10 1015.3 1015.1 0.0
20/04:30am 22.1 21.6 14.8 63 4.3 SSE 11 13 6 7 1015.2 1015.0 0.0
20/04:00am 22.1 22.4 16.1 69 3.6 SSE 9 11 5 6 1015.1 1014.9 0.0
20/03:30am 22.6 23.2 16.7 69 3.6 SSE 9 13 5 7 1015.4 1015.2 0.0
20/03:00am 21.4 23.3 18.5 83 1.8 SE 6 9 3 5 1015.5 1015.3 0.0
20/02:30am 20.9 23.4 19.0 89 1.2 SE 4 6 2 3 1015.7 1015.5 0.0
20/02:00am 21.5 24.0 19.1 86 1.5 SE 4 6 2 3 1016.0 1015.8 0.0
20/01:30am 21.8 24.5 19.4 86 1.5 E 4 6 2 3 1016.3 1016.1 0.0
20/01:00am 22.5 25.3 19.7 84 1.8 ENE 4 4 2 2 1016.4 1016.2 0.0
20/12:30am 23.2 25.5 19.9 82 2.1 ENE 7 9 4 5 1016.5 1016.3 0.0
20/12:00am 23.9 27.5 19.7 77 2.7 CALM 0 0 0 0 1016.5 1016.3 0.0
 
Date/Time
CST
Temp
°C
App
Temp
°C
Dew
Point
°C
Rel
Hum
%
Delta-T
°C
Wind Press
QNH
hPa
Press
MSL
hPa
Rain since
9am
mm
Dir  Spd
km/h
Gust
km/h
Spd
kts
Gust
kts
19/11:30pm 25.0 27.4 19.7 72 3.4 SW 6 6 3 3 1016.3 1016.1 0.0
19/11:00pm 24.8 26.7 19.7 73 3.3 SW 9 11 5 6 1016.3 1016.1 0.0
19/10:30pm 24.4 26.5 20.1 77 2.8 SW 9 13 5 7 1016.4 1016.2 0.0
19/10:00pm 24.3 26.4 20.1 77 2.7 SSW 9 11 5 6 1016.4 1016.2 0.0
19/09:30pm 24.5 27.3 18.0 67 4.1 CALM 0 0 0 0 1016.1 1015.9 0.0
19/09:00pm 24.1 25.5 17.3 65 4.2 NNE 6 6 3 3 1015.8 1015.6 0.0
19/08:30pm 24.6 26.8 17.5 64 4.4 N 2 6 1 3 1015.3 1015.1 0.0
19/08:00pm 25.1 27.4 18.5 67 4.2 NNE 4 6 2 3 1015.0 1014.8 0.0
19/07:30pm 25.4 27.3 18.5 65 4.4 N 6 6 3 3 1014.7 1014.5 0.0
19/07:00pm 25.8 26.8 17.7 61 5.1 N 9 11 5 6 1014.5 1014.3 0.0
19/06:30pm 26.5 27.3 17.2 56 5.8 NNW 9 13 5 7 1014.2 1014.0 0.0
19/06:00pm 27.5 26.8 16.4 50 6.9 N 15 17 8 9 1013.9 1013.7 0.0
19/05:30pm 28.1 27.4 15.3 45 7.8 N 13 17 7 9 1013.5 1013.3 0.0
19/05:00pm 28.9 27.5 14.5 41 8.7 NNW 15 20 8 11 1013.3 1013.1 0.0
19/04:30pm 29.3 27.6 14.6 40 8.9 NNW 17 22 9 12 1013.1 1012.9 0.0
19/04:00pm 31.7 30.4 13.6 33 10.9 WNW 13 19 7 10 1012.9 1012.7 0.0
19/03:30pm 31.5 29.7 12.2 30 11.4 NW 13 15 7 8 1012.9 1012.7 0.0
19/03:00pm 31.2 30.2 13.4 33 10.7 ESE 11 17 6 9 1013.1 1012.9 0.0

Latest Capital City Observations: Canberra | Sydney | Melbourne | Brisbane | Adelaide | Perth | Hobart | Darwin

Other Formats:

Comma delimited format used in spreadsheet applications
http://www.bom.gov.au/fwo/IDD60901/IDD60901.94120.axf

JavaScript Object Notation format (JSON) in row-major order
http://www.bom.gov.au/fwo/IDD60901/IDD60901.94120.json